sensor_id;sensor_type;location;lat;lon;timestamp;P1;durP1;ratioP1;P2;durP2;ratioP2
71290;SDS011;59073;51.994;4.448;2023-05-07T00:01:47;14.35;;;14.35;;
71290;SDS011;59073;51.994;4.448;2023-05-07T00:04:12;15.16;;;15.15;;
71290;SDS011;59073;51.994;4.448;2023-05-07T00:06:38;15.91;;;15.85;;
71290;SDS011;59073;51.994;4.448;2023-05-07T00:09:05;14.66;;;14.65;;
71290;SDS011;59073;51.994;4.448;2023-05-07T00:11:31;14.93;;;14.88;;
71290;SDS011;59073;51.994;4.448;2023-05-07T00:13:57;14.45;;;14.42;;
71290;SDS011;59073;51.994;4.448;2023-05-07T00:16:23;14.33;;;14.23;;
71290;SDS011;59073;51.994;4.448;2023-05-07T00:18:48;14.40;;;14.38;;
71290;SDS011;59073;51.994;4.448;2023-05-07T00:21:14;14.17;;;14.16;;
71290;SDS011;59073;51.994;4.448;2023-05-07T00:23:39;14.40;;;14.40;;
71290;SDS011;59073;51.994;4.448;2023-05-07T00:26:05;14.61;;;14.54;;
71290;SDS011;59073;51.994;4.448;2023-05-07T00:28:30;14.68;;;14.63;;
71290;SDS011;59073;51.994;4.448;2023-05-07T00:30:55;14.31;;;14.31;;
71290;SDS011;59073;51.994;4.448;2023-05-07T00:33:21;14.84;;;14.75;;
71290;SDS011;59073;51.994;4.448;2023-05-07T00:35:47;15.61;;;15.55;;
71290;SDS011;59073;51.994;4.448;2023-05-07T00:38:13;15.37;;;15.37;;
71290;SDS011;59073;51.994;4.448;2023-05-07T00:40:39;16.03;;;16.03;;
71290;SDS011;59073;51.994;4.448;2023-05-07T00:43:04;15.63;;;15.56;;
71290;SDS011;59073;51.994;4.448;2023-05-07T00:45:30;16.32;;;16.31;;
71290;SDS011;59073;51.994;4.448;2023-05-07T00:47:55;17.21;;;17.19;;
71290;SDS011;59073;51.994;4.448;2023-05-07T00:50:24;16.56;;;16.56;;
71290;SDS011;59073;51.994;4.448;2023-05-07T00:52:50;16.46;;;16.45;;
71290;SDS011;59073;51.994;4.448;2023-05-07T00:55:16;16.59;;;16.37;;
71290;SDS011;59073;51.994;4.448;2023-05-07T00:57:42;16.22;;;16.12;;
71290;SDS011;59073;51.994;4.448;2023-05-07T01:00:10;15.29;;;15.19;;
71290;SDS011;59073;51.994;4.448;2023-05-07T01:02:40;15.94;;;15.90;;
71290;SDS011;59073;51.994;4.448;2023-05-07T01:05:07;16.01;;;16.01;;
71290;SDS011;59073;51.994;4.448;2023-05-07T01:07:36;15.90;;;15.90;;
71290;SDS011;59073;51.994;4.448;2023-05-07T01:10:04;15.77;;;15.73;;
71290;SDS011;59073;51.994;4.448;2023-05-07T01:12:31;14.65;;;14.65;;
71290;SDS011;59073;51.994;4.448;2023-05-07T01:14:59;15.64;;;15.63;;
71290;SDS011;59073;51.994;4.448;2023-05-07T01:17:25;15.32;;;15.32;;
71290;SDS011;59073;51.994;4.448;2023-05-07T01:19:51;15.49;;;15.49;;
71290;SDS011;59073;51.994;4.448;2023-05-07T01:22:23;15.39;;;15.29;;
71290;SDS011;59073;51.994;4.448;2023-05-07T01:24:56;15.17;;;15.04;;
71290;SDS011;59073;51.994;4.448;2023-05-07T01:27:21;15.40;;;15.35;;
71290;SDS011;59073;51.994;4.448;2023-05-07T01:29:47;15.18;;;15.17;;
71290;SDS011;59073;51.994;4.448;2023-05-07T01:32:12;15.12;;;15.10;;
71290;SDS011;59073;51.994;4.448;2023-05-07T01:34:43;14.32;;;14.32;;
71290;SDS011;59073;51.994;4.448;2023-05-07T01:37:13;13.94;;;13.93;;
71290;SDS011;59073;51.994;4.448;2023-05-07T01:39:39;13.71;;;13.70;;
71290;SDS011;59073;51.994;4.448;2023-05-07T01:42:06;13.95;;;13.94;;
71290;SDS011;59073;51.994;4.448;2023-05-07T01:44:32;13.58;;;13.57;;
71290;SDS011;59073;51.994;4.448;2023-05-07T01:46:58;13.57;;;13.49;;
71290;SDS011;59073;51.994;4.448;2023-05-07T01:49:24;12.88;;;12.87;;
71290;SDS011;59073;51.994;4.448;2023-05-07T01:51:50;12.60;;;12.60;;
71290;SDS011;59073;51.994;4.448;2023-05-07T01:54:16;12.83;;;12.83;;
71290;SDS011;59073;51.994;4.448;2023-05-07T01:56:42;13.14;;;13.14;;
71290;SDS011;59073;51.994;4.448;2023-05-07T01:59:07;13.46;;;13.46;;
71290;SDS011;59073;51.994;4.448;2023-05-07T02:01:32;12.97;;;12.96;;
71290;SDS011;59073;51.994;4.448;2023-05-07T02:03:58;12.44;;;12.41;;
71290;SDS011;59073;51.994;4.448;2023-05-07T02:06:23;12.37;;;12.37;;
71290;SDS011;59073;51.994;4.448;2023-05-07T02:08:49;12.51;;;12.51;;
71290;SDS011;59073;51.994;4.448;2023-05-07T02:11:14;13.22;;;13.22;;
71290;SDS011;59073;51.994;4.448;2023-05-07T02:13:40;12.76;;;12.76;;
71290;SDS011;59073;51.994;4.448;2023-05-07T02:16:06;13.25;;;13.20;;
71290;SDS011;59073;51.994;4.448;2023-05-07T02:18:32;13.84;;;13.84;;
71290;SDS011;59073;51.994;4.448;2023-05-07T02:20:57;13.55;;;13.55;;
71290;SDS011;59073;51.994;4.448;2023-05-07T02:23:22;14.27;;;14.27;;
71290;SDS011;59073;51.994;4.448;2023-05-07T02:25:48;13.75;;;13.75;;
71290;SDS011;59073;51.994;4.448;2023-05-07T02:28:13;13.97;;;13.97;;
71290;SDS011;59073;51.994;4.448;2023-05-07T02:30:39;14.05;;;14.05;;
71290;SDS011;59073;51.994;4.448;2023-05-07T02:33:05;14.69;;;14.67;;
71290;SDS011;59073;51.994;4.448;2023-05-07T02:35:31;14.50;;;14.43;;
71290;SDS011;59073;51.994;4.448;2023-05-07T02:37:56;14.70;;;14.67;;
71290;SDS011;59073;51.994;4.448;2023-05-07T02:40:22;14.03;;;14.03;;
71290;SDS011;59073;51.994;4.448;2023-05-07T02:42:47;14.33;;;14.33;;
71290;SDS011;59073;51.994;4.448;2023-05-07T02:45:13;14.70;;;14.70;;
71290;SDS011;59073;51.994;4.448;2023-05-07T02:47:39;14.60;;;14.59;;
71290;SDS011;59073;51.994;4.448;2023-05-07T02:50:05;14.65;;;14.65;;
71290;SDS011;59073;51.994;4.448;2023-05-07T02:52:31;14.15;;;14.14;;
71290;SDS011;59073;51.994;4.448;2023-05-07T02:54:56;14.03;;;14.03;;
71290;SDS011;59073;51.994;4.448;2023-05-07T02:57:22;13.84;;;13.84;;
71290;SDS011;59073;51.994;4.448;2023-05-07T02:59:47;14.14;;;14.14;;
71290;SDS011;59073;51.994;4.448;2023-05-07T03:02:12;14.68;;;14.67;;
71290;SDS011;59073;51.994;4.448;2023-05-07T03:04:39;14.68;;;14.68;;
71290;SDS011;59073;51.994;4.448;2023-05-07T03:07:05;14.26;;;14.26;;
71290;SDS011;59073;51.994;4.448;2023-05-07T03:09:30;14.06;;;14.05;;
71290;SDS011;59073;51.994;4.448;2023-05-07T03:11:56;14.37;;;14.37;;
71290;SDS011;59073;51.994;4.448;2023-05-07T03:14:22;14.66;;;14.66;;
71290;SDS011;59073;51.994;4.448;2023-05-07T03:16:48;14.44;;;14.44;;
71290;SDS011;59073;51.994;4.448;2023-05-07T03:19:14;13.70;;;13.70;;
71290;SDS011;59073;51.994;4.448;2023-05-07T03:21:40;14.22;;;14.22;;
71290;SDS011;59073;51.994;4.448;2023-05-07T03:24:05;13.27;;;13.27;;
71290;SDS011;59073;51.994;4.448;2023-05-07T03:26:31;14.13;;;14.13;;
71290;SDS011;59073;51.994;4.448;2023-05-07T03:28:56;13.36;;;13.36;;
71290;SDS011;59073;51.994;4.448;2023-05-07T03:31:21;13.18;;;13.18;;
71290;SDS011;59073;51.994;4.448;2023-05-07T03:33:52;13.16;;;13.16;;
71290;SDS011;59073;51.994;4.448;2023-05-07T03:36:19;13.40;;;13.40;;
71290;SDS011;59073;51.994;4.448;2023-05-07T03:38:46;12.51;;;12.51;;
71290;SDS011;59073;51.994;4.448;2023-05-07T03:41:12;12.77;;;12.77;;
71290;SDS011;59073;51.994;4.448;2023-05-07T03:43:38;13.54;;;13.54;;
71290;SDS011;59073;51.994;4.448;2023-05-07T03:46:04;13.48;;;13.48;;
71290;SDS011;59073;51.994;4.448;2023-05-07T03:48:29;13.15;;;13.15;;
71290;SDS011;59073;51.994;4.448;2023-05-07T03:50:55;12.96;;;12.96;;
71290;SDS011;59073;51.994;4.448;2023-05-07T03:53:22;13.88;;;13.88;;
71290;SDS011;59073;51.994;4.448;2023-05-07T03:55:47;13.35;;;13.35;;
71290;SDS011;59073;51.994;4.448;2023-05-07T03:58:13;13.42;;;13.42;;
71290;SDS011;59073;51.994;4.448;2023-05-07T04:00:38;13.35;;;13.35;;
71290;SDS011;59073;51.994;4.448;2023-05-07T04:03:05;13.69;;;13.69;;
71290;SDS011;59073;51.994;4.448;2023-05-07T04:05:31;13.15;;;13.15;;
71290;SDS011;59073;51.994;4.448;2023-05-07T04:07:59;13.41;;;13.41;;
71290;SDS011;59073;51.994;4.448;2023-05-07T04:10:25;12.67;;;12.67;;
71290;SDS011;59073;51.994;4.448;2023-05-07T04:12:51;12.44;;;12.44;;
71290;SDS011;59073;51.994;4.448;2023-05-07T04:15:16;12.81;;;12.81;;
71290;SDS011;59073;51.994;4.448;2023-05-07T04:17:42;12.51;;;12.51;;
71290;SDS011;59073;51.994;4.448;2023-05-07T04:20:13;12.40;;;12.40;;
71290;SDS011;59073;51.994;4.448;2023-05-07T04:22:40;11.72;;;11.72;;
71290;SDS011;59073;51.994;4.448;2023-05-07T04:25:06;12.68;;;12.68;;
71290;SDS011;59073;51.994;4.448;2023-05-07T04:27:34;12.69;;;12.69;;
71290;SDS011;59073;51.994;4.448;2023-05-07T04:29:59;11.66;;;11.66;;
71290;SDS011;59073;51.994;4.448;2023-05-07T04:32:25;12.38;;;12.38;;
71290;SDS011;59073;51.994;4.448;2023-05-07T04:34:51;12.06;;;12.06;;
71290;SDS011;59073;51.994;4.448;2023-05-07T04:37:17;11.56;;;11.56;;
71290;SDS011;59073;51.994;4.448;2023-05-07T04:39:42;11.14;;;11.14;;
71290;SDS011;59073;51.994;4.448;2023-05-07T04:42:08;11.15;;;11.15;;
71290;SDS011;59073;51.994;4.448;2023-05-07T04:44:34;11.85;;;11.85;;
71290;SDS011;59073;51.994;4.448;2023-05-07T04:47:00;11.36;;;11.36;;
71290;SDS011;59073;51.994;4.448;2023-05-07T04:49:26;11.46;;;11.46;;
71290;SDS011;59073;51.994;4.448;2023-05-07T04:51:51;11.18;;;11.18;;
71290;SDS011;59073;51.994;4.448;2023-05-07T04:54:17;10.50;;;10.50;;
71290;SDS011;59073;51.994;4.448;2023-05-07T04:56:42;10.25;;;10.25;;
71290;SDS011;59073;51.994;4.448;2023-05-07T04:59:08;9.84;;;9.84;;
71290;SDS011;59073;51.994;4.448;2023-05-07T05:01:33;9.83;;;9.83;;
71290;SDS011;59073;51.994;4.448;2023-05-07T05:03:58;9.65;;;9.65;;
71290;SDS011;59073;51.994;4.448;2023-05-07T05:06:25;9.49;;;9.49;;
71290;SDS011;59073;51.994;4.448;2023-05-07T05:08:50;9.73;;;9.73;;
71290;SDS011;59073;51.994;4.448;2023-05-07T05:11:16;10.15;;;10.15;;
71290;SDS011;59073;51.994;4.448;2023-05-07T05:13:41;9.84;;;9.84;;
71290;SDS011;59073;51.994;4.448;2023-05-07T05:16:07;9.97;;;9.97;;
71290;SDS011;59073;51.994;4.448;2023-05-07T05:18:32;9.68;;;9.68;;
71290;SDS011;59073;51.994;4.448;2023-05-07T05:20:58;9.95;;;9.95;;
71290;SDS011;59073;51.994;4.448;2023-05-07T05:23:23;9.86;;;9.86;;
71290;SDS011;59073;51.994;4.448;2023-05-07T05:25:48;9.96;;;9.96;;
71290;SDS011;59073;51.994;4.448;2023-05-07T05:28:14;9.78;;;9.78;;
71290;SDS011;59073;51.994;4.448;2023-05-07T05:30:39;9.73;;;9.73;;
71290;SDS011;59073;51.994;4.448;2023-05-07T05:33:05;9.82;;;9.82;;
71290;SDS011;59073;51.994;4.448;2023-05-07T05:35:30;9.51;;;9.51;;
71290;SDS011;59073;51.994;4.448;2023-05-07T05:37:56;9.91;;;9.91;;
71290;SDS011;59073;51.994;4.448;2023-05-07T05:40:22;10.22;;;10.22;;
71290;SDS011;59073;51.994;4.448;2023-05-07T05:42:47;10.43;;;10.43;;
71290;SDS011;59073;51.994;4.448;2023-05-07T05:45:13;10.57;;;10.57;;
71290;SDS011;59073;51.994;4.448;2023-05-07T05:47:38;10.28;;;10.28;;
71290;SDS011;59073;51.994;4.448;2023-05-07T05:50:05;10.14;;;10.14;;
71290;SDS011;59073;51.994;4.448;2023-05-07T05:52:31;9.63;;;9.63;;
71290;SDS011;59073;51.994;4.448;2023-05-07T05:54:57;9.74;;;9.74;;
71290;SDS011;59073;51.994;4.448;2023-05-07T05:57:22;9.78;;;9.78;;
71290;SDS011;59073;51.994;4.448;2023-05-07T05:59:47;9.81;;;9.81;;
71290;SDS011;59073;51.994;4.448;2023-05-07T06:02:13;10.91;;;10.91;;
71290;SDS011;59073;51.994;4.448;2023-05-07T06:04:38;10.50;;;10.50;;
71290;SDS011;59073;51.994;4.448;2023-05-07T06:07:04;10.20;;;10.20;;
71290;SDS011;59073;51.994;4.448;2023-05-07T06:09:30;10.33;;;10.33;;
71290;SDS011;59073;51.994;4.448;2023-05-07T06:11:56;10.28;;;10.28;;
71290;SDS011;59073;51.994;4.448;2023-05-07T06:14:21;10.22;;;10.22;;
71290;SDS011;59073;51.994;4.448;2023-05-07T06:16:46;10.51;;;10.51;;
71290;SDS011;59073;51.994;4.448;2023-05-07T06:19:12;10.14;;;10.14;;
71290;SDS011;59073;51.994;4.448;2023-05-07T06:21:38;10.06;;;10.06;;
71290;SDS011;59073;51.994;4.448;2023-05-07T06:24:04;10.66;;;10.66;;
71290;SDS011;59073;51.994;4.448;2023-05-07T06:26:30;11.15;;;11.15;;
71290;SDS011;59073;51.994;4.448;2023-05-07T06:28:55;10.35;;;10.35;;
71290;SDS011;59073;51.994;4.448;2023-05-07T06:31:21;10.42;;;10.42;;
71290;SDS011;59073;51.994;4.448;2023-05-07T06:33:46;10.80;;;10.80;;
71290;SDS011;59073;51.994;4.448;2023-05-07T06:36:12;9.88;;;9.88;;
71290;SDS011;59073;51.994;4.448;2023-05-07T06:38:37;10.11;;;10.11;;
71290;SDS011;59073;51.994;4.448;2023-05-07T06:41:03;10.45;;;10.45;;
71290;SDS011;59073;51.994;4.448;2023-05-07T06:43:28;9.55;;;9.55;;
71290;SDS011;59073;51.994;4.448;2023-05-07T06:45:53;9.61;;;9.61;;
71290;SDS011;59073;51.994;4.448;2023-05-07T06:48:19;9.21;;;9.21;;
71290;SDS011;59073;51.994;4.448;2023-05-07T06:50:45;9.46;;;9.46;;
71290;SDS011;59073;51.994;4.448;2023-05-07T06:53:10;9.77;;;9.77;;
71290;SDS011;59073;51.994;4.448;2023-05-07T06:55:36;9.73;;;9.73;;
71290;SDS011;59073;51.994;4.448;2023-05-07T06:58:04;9.06;;;9.06;;
71290;SDS011;59073;51.994;4.448;2023-05-07T07:00:31;9.18;;;9.18;;
71290;SDS011;59073;51.994;4.448;2023-05-07T07:02:56;9.83;;;9.83;;
71290;SDS011;59073;51.994;4.448;2023-05-07T07:05:21;9.98;;;9.98;;
71290;SDS011;59073;51.994;4.448;2023-05-07T07:07:47;9.84;;;9.84;;
71290;SDS011;59073;51.994;4.448;2023-05-07T07:10:21;9.96;;;9.96;;
71290;SDS011;59073;51.994;4.448;2023-05-07T07:12:48;10.19;;;10.19;;
71290;SDS011;59073;51.994;4.448;2023-05-07T07:15:14;10.20;;;10.20;;
71290;SDS011;59073;51.994;4.448;2023-05-07T07:17:40;9.78;;;9.78;;
71290;SDS011;59073;51.994;4.448;2023-05-07T07:20:05;9.35;;;9.35;;
71290;SDS011;59073;51.994;4.448;2023-05-07T07:22:31;9.72;;;9.72;;
71290;SDS011;59073;51.994;4.448;2023-05-07T07:24:57;9.47;;;9.47;;
71290;SDS011;59073;51.994;4.448;2023-05-07T07:27:23;9.71;;;9.71;;
71290;SDS011;59073;51.994;4.448;2023-05-07T07:29:48;9.12;;;9.12;;
71290;SDS011;59073;51.994;4.448;2023-05-07T07:32:14;9.06;;;9.06;;
71290;SDS011;59073;51.994;4.448;2023-05-07T07:34:40;9.24;;;9.24;;
71290;SDS011;59073;51.994;4.448;2023-05-07T07:37:05;9.65;;;9.65;;
71290;SDS011;59073;51.994;4.448;2023-05-07T07:39:31;9.66;;;9.66;;
71290;SDS011;59073;51.994;4.448;2023-05-07T07:41:57;9.01;;;9.01;;
71290;SDS011;59073;51.994;4.448;2023-05-07T07:44:23;8.89;;;8.89;;
71290;SDS011;59073;51.994;4.448;2023-05-07T07:46:48;8.92;;;8.92;;
71290;SDS011;59073;51.994;4.448;2023-05-07T07:49:14;9.77;;;9.77;;
71290;SDS011;59073;51.994;4.448;2023-05-07T07:51:40;9.84;;;9.84;;
71290;SDS011;59073;51.994;4.448;2023-05-07T07:54:05;8.82;;;8.82;;
71290;SDS011;59073;51.994;4.448;2023-05-07T07:56:32;8.75;;;8.75;;
71290;SDS011;59073;51.994;4.448;2023-05-07T07:58:58;9.03;;;9.03;;
71290;SDS011;59073;51.994;4.448;2023-05-07T08:01:24;8.78;;;8.78;;
71290;SDS011;59073;51.994;4.448;2023-05-07T08:03:49;7.95;;;7.95;;
71290;SDS011;59073;51.994;4.448;2023-05-07T08:06:15;6.96;;;6.96;;
71290;SDS011;59073;51.994;4.448;2023-05-07T08:08:40;5.97;;;5.97;;
71290;SDS011;59073;51.994;4.448;2023-05-07T08:11:06;6.38;;;6.38;;
71290;SDS011;59073;51.994;4.448;2023-05-07T08:13:31;5.71;;;5.71;;
71290;SDS011;59073;51.994;4.448;2023-05-07T08:15:57;6.45;;;6.45;;
71290;SDS011;59073;51.994;4.448;2023-05-07T08:18:22;6.25;;;6.25;;
71290;SDS011;59073;51.994;4.448;2023-05-07T08:20:49;7.48;;;7.48;;
71290;SDS011;59073;51.994;4.448;2023-05-07T08:23:15;6.81;;;6.81;;
71290;SDS011;59073;51.994;4.448;2023-05-07T08:25:40;7.35;;;7.35;;
71290;SDS011;59073;51.994;4.448;2023-05-07T08:28:07;7.68;;;7.68;;
71290;SDS011;59073;51.994;4.448;2023-05-07T08:30:33;7.79;;;7.79;;
71290;SDS011;59073;51.994;4.448;2023-05-07T08:32:59;7.64;;;7.64;;
71290;SDS011;59073;51.994;4.448;2023-05-07T08:35:25;7.66;;;7.66;;
71290;SDS011;59073;51.994;4.448;2023-05-07T08:37:52;6.22;;;6.22;;
71290;SDS011;59073;51.994;4.448;2023-05-07T08:40:17;5.90;;;5.90;;
71290;SDS011;59073;51.994;4.448;2023-05-07T08:42:43;5.90;;;5.90;;
71290;SDS011;59073;51.994;4.448;2023-05-07T08:45:10;7.02;;;7.02;;
71290;SDS011;59073;51.994;4.448;2023-05-07T08:47:43;7.19;;;7.19;;
71290;SDS011;59073;51.994;4.448;2023-05-07T08:50:11;8.25;;;8.25;;
71290;SDS011;59073;51.994;4.448;2023-05-07T08:52:39;8.27;;;8.27;;
71290;SDS011;59073;51.994;4.448;2023-05-07T08:55:05;8.56;;;8.56;;
71290;SDS011;59073;51.994;4.448;2023-05-07T08:57:32;8.69;;;8.69;;
71290;SDS011;59073;51.994;4.448;2023-05-07T08:59:57;8.48;;;8.48;;
71290;SDS011;59073;51.994;4.448;2023-05-07T09:02:22;8.74;;;8.74;;
71290;SDS011;59073;51.994;4.448;2023-05-07T09:04:50;7.79;;;7.79;;
71290;SDS011;59073;51.994;4.448;2023-05-07T09:07:16;8.69;;;8.69;;
71290;SDS011;59073;51.994;4.448;2023-05-07T09:09:43;8.88;;;8.88;;
71290;SDS011;59073;51.994;4.448;2023-05-07T09:12:09;8.53;;;8.53;;
71290;SDS011;59073;51.994;4.448;2023-05-07T09:14:35;7.64;;;7.64;;
71290;SDS011;59073;51.994;4.448;2023-05-07T09:17:00;8.51;;;8.51;;
71290;SDS011;59073;51.994;4.448;2023-05-07T09:19:26;9.10;;;9.10;;
71290;SDS011;59073;51.994;4.448;2023-05-07T09:22:02;8.62;;;8.62;;
71290;SDS011;59073;51.994;4.448;2023-05-07T09:24:29;9.38;;;9.38;;
71290;SDS011;59073;51.994;4.448;2023-05-07T09:26:59;8.97;;;8.97;;
71290;SDS011;59073;51.994;4.448;2023-05-07T09:29:26;9.32;;;9.32;;
71290;SDS011;59073;51.994;4.448;2023-05-07T09:32:00;8.89;;;8.89;;
71290;SDS011;59073;51.994;4.448;2023-05-07T09:34:27;8.21;;;8.21;;
71290;SDS011;59073;51.994;4.448;2023-05-07T09:36:53;8.53;;;8.53;;
71290;SDS011;59073;51.994;4.448;2023-05-07T09:39:19;9.49;;;9.49;;
71290;SDS011;59073;51.994;4.448;2023-05-07T09:41:45;9.55;;;9.55;;
71290;SDS011;59073;51.994;4.448;2023-05-07T09:44:11;9.14;;;9.14;;
71290;SDS011;59073;51.994;4.448;2023-05-07T09:46:38;7.93;;;7.93;;
71290;SDS011;59073;51.994;4.448;2023-05-07T09:49:07;8.51;;;8.51;;
71290;SDS011;59073;51.994;4.448;2023-05-07T09:51:43;8.79;;;8.79;;
71290;SDS011;59073;51.994;4.448;2023-05-07T09:54:14;8.66;;;8.66;;
71290;SDS011;59073;51.994;4.448;2023-05-07T09:56:42;8.28;;;8.28;;
71290;SDS011;59073;51.994;4.448;2023-05-07T09:59:12;8.51;;;8.51;;
71290;SDS011;59073;51.994;4.448;2023-05-07T10:01:40;8.25;;;8.25;;
71290;SDS011;59073;51.994;4.448;2023-05-07T10:04:07;7.62;;;7.62;;
71290;SDS011;59073;51.994;4.448;2023-05-07T10:06:35;7.24;;;7.23;;
71290;SDS011;59073;51.994;4.448;2023-05-07T10:09:02;6.87;;;6.87;;
71290;SDS011;59073;51.994;4.448;2023-05-07T10:11:33;6.61;;;6.61;;
71290;SDS011;59073;51.994;4.448;2023-05-07T10:13:59;6.17;;;6.17;;
71290;SDS011;59073;51.994;4.448;2023-05-07T10:16:27;4.88;;;4.88;;
71290;SDS011;59073;51.994;4.448;2023-05-07T10:18:56;4.64;;;4.64;;
71290;SDS011;59073;51.994;4.448;2023-05-07T10:21:23;5.36;;;5.36;;
71290;SDS011;59073;51.994;4.448;2023-05-07T10:23:58;5.37;;;5.37;;
71290;SDS011;59073;51.994;4.448;2023-05-07T10:26:28;5.00;;;5.00;;
71290;SDS011;59073;51.994;4.448;2023-05-07T10:28:59;4.99;;;4.99;;
71290;SDS011;59073;51.994;4.448;2023-05-07T10:31:59;5.34;;;5.34;;
71290;SDS011;59073;51.994;4.448;2023-05-07T10:34:37;5.53;;;5.53;;
71290;SDS011;59073;51.994;4.448;2023-05-07T10:37:06;5.32;;;5.32;;
71290;SDS011;59073;51.994;4.448;2023-05-07T10:39:34;3.66;;;3.66;;
71290;SDS011;59073;51.994;4.448;2023-05-07T10:42:13;3.36;;;3.36;;
71290;SDS011;59073;51.994;4.448;2023-05-07T10:44:39;3.13;;;3.13;;
71290;SDS011;59073;51.994;4.448;2023-05-07T10:47:09;3.82;;;3.82;;
71290;SDS011;59073;51.994;4.448;2023-05-07T10:49:49;5.55;;;5.55;;
71290;SDS011;59073;51.994;4.448;2023-05-07T10:52:31;5.80;;;5.80;;
71290;SDS011;59073;51.994;4.448;2023-05-07T10:57:39;4.83;;;4.83;;
71290;SDS011;59073;51.994;4.448;2023-05-07T11:05:26;2.50;;;2.50;;
71290;SDS011;59073;51.994;4.448;2023-05-07T11:08:03;2.06;;;2.06;;
71290;SDS011;59073;51.994;4.448;2023-05-07T11:13:15;2.96;;;2.96;;
71290;SDS011;59073;51.994;4.448;2023-05-07T11:15:42;2.72;;;2.71;;
71290;SDS011;59073;51.994;4.448;2023-05-07T11:18:10;3.08;;;3.08;;
71290;SDS011;59073;51.994;4.448;2023-05-07T11:25:59;4.21;;;4.21;;
71290;SDS011;59073;51.994;4.448;2023-05-07T11:28:27;3.66;;;3.66;;
71290;SDS011;59073;51.994;4.448;2023-05-07T11:30:54;3.99;;;3.99;;
71290;SDS011;59073;51.994;4.448;2023-05-07T11:33:22;3.93;;;3.93;;
71290;SDS011;59073;51.994;4.448;2023-05-07T11:35:48;3.89;;;3.89;;
71290;SDS011;59073;51.994;4.448;2023-05-07T11:38:13;4.03;;;4.03;;
71290;SDS011;59073;51.994;4.448;2023-05-07T11:40:48;4.48;;;4.48;;
71290;SDS011;59073;51.994;4.448;2023-05-07T11:43:15;4.48;;;4.48;;
71290;SDS011;59073;51.994;4.448;2023-05-07T11:45:41;4.57;;;4.57;;
71290;SDS011;59073;51.994;4.448;2023-05-07T11:48:06;4.72;;;4.72;;
71290;SDS011;59073;51.994;4.448;2023-05-07T11:50:32;4.52;;;4.52;;
71290;SDS011;59073;51.994;4.448;2023-05-07T11:52:57;4.36;;;4.36;;
71290;SDS011;59073;51.994;4.448;2023-05-07T11:55:23;4.07;;;4.07;;
71290;SDS011;59073;51.994;4.448;2023-05-07T11:57:51;3.96;;;3.96;;
71290;SDS011;59073;51.994;4.448;2023-05-07T12:00:16;4.45;;;4.45;;
71290;SDS011;59073;51.994;4.448;2023-05-07T12:02:43;4.50;;;4.50;;
71290;SDS011;59073;51.994;4.448;2023-05-07T12:05:10;4.42;;;4.42;;
71290;SDS011;59073;51.994;4.448;2023-05-07T12:07:35;4.61;;;4.61;;
71290;SDS011;59073;51.994;4.448;2023-05-07T12:10:04;5.14;;;5.14;;
71290;SDS011;59073;51.994;4.448;2023-05-07T12:12:31;4.74;;;4.74;;
71290;SDS011;59073;51.994;4.448;2023-05-07T12:15:02;4.74;;;4.74;;
71290;SDS011;59073;51.994;4.448;2023-05-07T12:17:28;4.81;;;4.81;;
71290;SDS011;59073;51.994;4.448;2023-05-07T12:19:54;5.00;;;5.00;;
71290;SDS011;59073;51.994;4.448;2023-05-07T12:22:19;5.27;;;5.27;;
71290;SDS011;59073;51.994;4.448;2023-05-07T12:24:45;8.39;;;8.39;;
71290;SDS011;59073;51.994;4.448;2023-05-07T12:27:13;9.17;;;9.17;;
71290;SDS011;59073;51.994;4.448;2023-05-07T12:29:39;10.44;;;10.44;;
71290;SDS011;59073;51.994;4.448;2023-05-07T12:32:06;10.38;;;10.38;;
71290;SDS011;59073;51.994;4.448;2023-05-07T12:34:32;11.20;;;11.20;;
71290;SDS011;59073;51.994;4.448;2023-05-07T12:36:57;11.21;;;11.21;;
71290;SDS011;59073;51.994;4.448;2023-05-07T12:39:28;11.57;;;11.57;;
71290;SDS011;59073;51.994;4.448;2023-05-07T12:41:54;10.92;;;10.92;;
71290;SDS011;59073;51.994;4.448;2023-05-07T12:44:23;10.36;;;10.36;;
71290;SDS011;59073;51.994;4.448;2023-05-07T12:46:55;10.32;;;10.32;;
71290;SDS011;59073;51.994;4.448;2023-05-07T12:49:21;10.91;;;10.91;;
71290;SDS011;59073;51.994;4.448;2023-05-07T12:51:48;11.34;;;11.34;;
71290;SDS011;59073;51.994;4.448;2023-05-07T12:54:27;10.38;;;10.38;;
71290;SDS011;59073;51.994;4.448;2023-05-07T12:57:02;9.77;;;9.77;;
71290;SDS011;59073;51.994;4.448;2023-05-07T12:59:37;10.21;;;10.21;;
71290;SDS011;59073;51.994;4.448;2023-05-07T13:02:04;10.39;;;10.39;;
71290;SDS011;59073;51.994;4.448;2023-05-07T13:04:30;12.27;;;12.27;;
71290;SDS011;59073;51.994;4.448;2023-05-07T13:06:56;13.65;;;13.65;;
71290;SDS011;59073;51.994;4.448;2023-05-07T13:09:21;14.04;;;14.04;;
71290;SDS011;59073;51.994;4.448;2023-05-07T13:11:47;14.56;;;14.56;;
71290;SDS011;59073;51.994;4.448;2023-05-07T13:14:12;14.34;;;14.34;;
71290;SDS011;59073;51.994;4.448;2023-05-07T13:16:37;14.52;;;14.52;;
71290;SDS011;59073;51.994;4.448;2023-05-07T13:19:03;14.35;;;14.35;;
71290;SDS011;59073;51.994;4.448;2023-05-07T13:21:29;15.10;;;15.10;;
71290;SDS011;59073;51.994;4.448;2023-05-07T13:23:56;14.63;;;14.63;;
71290;SDS011;59073;51.994;4.448;2023-05-07T13:26:23;14.97;;;14.97;;
71290;SDS011;59073;51.994;4.448;2023-05-07T13:28:48;14.93;;;14.93;;
71290;SDS011;59073;51.994;4.448;2023-05-07T13:31:14;14.92;;;14.92;;
71290;SDS011;59073;51.994;4.448;2023-05-07T13:33:39;14.50;;;14.50;;
71290;SDS011;59073;51.994;4.448;2023-05-07T13:36:05;14.48;;;14.48;;
71290;SDS011;59073;51.994;4.448;2023-05-07T13:38:31;14.17;;;14.17;;
71290;SDS011;59073;51.994;4.448;2023-05-07T13:40:56;14.14;;;14.14;;
71290;SDS011;59073;51.994;4.448;2023-05-07T13:43:21;13.59;;;13.59;;
71290;SDS011;59073;51.994;4.448;2023-05-07T13:45:47;13.40;;;13.40;;
71290;SDS011;59073;51.994;4.448;2023-05-07T13:48:12;13.85;;;13.85;;
71290;SDS011;59073;51.994;4.448;2023-05-07T13:50:38;13.56;;;13.56;;
71290;SDS011;59073;51.994;4.448;2023-05-07T13:53:03;13.41;;;13.41;;
71290;SDS011;59073;51.994;4.448;2023-05-07T13:55:29;13.63;;;13.63;;
71290;SDS011;59073;51.994;4.448;2023-05-07T13:57:58;12.73;;;12.73;;
71290;SDS011;59073;51.994;4.448;2023-05-07T14:00:25;12.58;;;12.58;;
71290;SDS011;59073;51.994;4.448;2023-05-07T14:02:52;12.55;;;12.55;;
71290;SDS011;59073;51.994;4.448;2023-05-07T14:05:18;12.10;;;12.10;;
71290;SDS011;59073;51.994;4.448;2023-05-07T14:07:43;12.00;;;12.00;;
71290;SDS011;59073;51.994;4.448;2023-05-07T14:10:09;12.21;;;12.21;;
71290;SDS011;59073;51.994;4.448;2023-05-07T14:12:36;12.60;;;12.60;;
71290;SDS011;59073;51.994;4.448;2023-05-07T14:15:02;12.44;;;12.44;;
71290;SDS011;59073;51.994;4.448;2023-05-07T14:17:28;12.25;;;12.25;;
71290;SDS011;59073;51.994;4.448;2023-05-07T14:19:53;12.02;;;12.02;;
71290;SDS011;59073;51.994;4.448;2023-05-07T14:22:20;12.41;;;12.41;;
71290;SDS011;59073;51.994;4.448;2023-05-07T14:24:47;12.53;;;12.53;;
71290;SDS011;59073;51.994;4.448;2023-05-07T14:27:12;12.15;;;12.15;;
71290;SDS011;59073;51.994;4.448;2023-05-07T14:29:37;11.84;;;11.84;;
71290;SDS011;59073;51.994;4.448;2023-05-07T14:32:03;12.09;;;12.09;;
71290;SDS011;59073;51.994;4.448;2023-05-07T14:34:29;12.62;;;12.62;;
71290;SDS011;59073;51.994;4.448;2023-05-07T14:36:54;12.42;;;12.42;;
71290;SDS011;59073;51.994;4.448;2023-05-07T14:39:21;12.71;;;12.71;;
71290;SDS011;59073;51.994;4.448;2023-05-07T14:41:46;12.60;;;12.60;;
71290;SDS011;59073;51.994;4.448;2023-05-07T14:44:12;12.79;;;12.79;;
71290;SDS011;59073;51.994;4.448;2023-05-07T14:46:37;12.74;;;12.74;;